Terminal Aerodrome Forecast
Issued by NWS

Home | Current Version | Previous Version | Text Only | Print | Product List | Glossary On
Versions: 1 2 3 4 5 6 7 8 9 10 11 12 13 14 15 16 17 18 19 20 21 22 23 24 25 26 27 28 29
000
FTUS46 KEKA 252340
TAFUKI
TAF
KUKI 252340Z 2600/2624 17009KT 6SM -SHRA BR SCT029 BKN050
      TEMPO 2600/2603 6SM -TSRA SCT015 BKN025CB OVC035
     FM260300 26003KT 6SM -SHRA BKN010 BKN100
     FM260700 00000KT P6SM BKN100
     FM262000 31006KT P6SM SCT100=

USA.gov is the U.S. government's official web portal to all federal, state and local government web resources and services.